sensor_id;sensor_type;location;lat;lon;timestamp;P1;durP1;ratioP1;P2;durP2;ratioP2
4835;SDS011;2432;51.226;6.904;2022-08-19T00:01:57;11.50;;;6.10;;
4835;SDS011;2432;51.226;6.904;2022-08-19T00:04:29;13.73;;;6.93;;
4835;SDS011;2432;51.226;6.904;2022-08-19T00:06:59;13.63;;;6.97;;
4835;SDS011;2432;51.226;6.904;2022-08-19T00:09:27;11.87;;;5.60;;
4835;SDS011;2432;51.226;6.904;2022-08-19T00:11:54;13.90;;;5.97;;
4835;SDS011;2432;51.226;6.904;2022-08-19T00:14:22;16.03;;;6.03;;
4835;SDS011;2432;51.226;6.904;2022-08-19T00:16:50;13.20;;;6.27;;
4835;SDS011;2432;51.226;6.904;2022-08-19T00:19:20;12.90;;;6.03;;
4835;SDS011;2432;51.226;6.904;2022-08-19T00:21:48;13.40;;;6.03;;
4835;SDS011;2432;51.226;6.904;2022-08-19T00:24:16;14.33;;;6.33;;
4835;SDS011;2432;51.226;6.904;2022-08-19T00:26:42;22.83;;;6.67;;
4835;SDS011;2432;51.226;6.904;2022-08-19T00:29:12;11.50;;;5.70;;
4835;SDS011;2432;51.226;6.904;2022-08-19T00:31:41;12.10;;;6.10;;
4835;SDS011;2432;51.226;6.904;2022-08-19T00:34:09;16.97;;;5.77;;
4835;SDS011;2432;51.226;6.904;2022-08-19T00:36:37;13.93;;;6.30;;
4835;SDS011;2432;51.226;6.904;2022-08-19T00:39:05;12.83;;;6.20;;
4835;SDS011;2432;51.226;6.904;2022-08-19T00:41:32;20.03;;;7.20;;
4835;SDS011;2432;51.226;6.904;2022-08-19T00:44:00;16.73;;;6.47;;
4835;SDS011;2432;51.226;6.904;2022-08-19T00:46:30;13.97;;;6.03;;
4835;SDS011;2432;51.226;6.904;2022-08-19T00:48:59;16.80;;;6.57;;
4835;SDS011;2432;51.226;6.904;2022-08-19T00:51:28;14.73;;;6.87;;
4835;SDS011;2432;51.226;6.904;2022-08-19T00:53:58;12.37;;;6.40;;
4835;SDS011;2432;51.226;6.904;2022-08-19T00:56:27;12.67;;;6.30;;
4835;SDS011;2432;51.226;6.904;2022-08-19T00:58:54;16.20;;;6.43;;
4835;SDS011;2432;51.226;6.904;2022-08-19T01:01:24;13.67;;;6.10;;
4835;SDS011;2432;51.226;6.904;2022-08-19T01:03:51;14.17;;;6.30;;
4835;SDS011;2432;51.226;6.904;2022-08-19T01:06:23;22.53;;;6.57;;
4835;SDS011;2432;51.226;6.904;2022-08-19T01:08:51;13.70;;;6.30;;
4835;SDS011;2432;51.226;6.904;2022-08-19T01:11:17;13.83;;;6.30;;
4835;SDS011;2432;51.226;6.904;2022-08-19T01:13:44;12.63;;;5.30;;
4835;SDS011;2432;51.226;6.904;2022-08-19T01:16:15;18.13;;;6.10;;
4835;SDS011;2432;51.226;6.904;2022-08-19T01:18:43;12.47;;;6.47;;
4835;SDS011;2432;51.226;6.904;2022-08-19T01:21:12;13.67;;;6.10;;
4835;SDS011;2432;51.226;6.904;2022-08-19T01:23:53;14.10;;;6.03;;
4835;SDS011;2432;51.226;6.904;2022-08-19T01:26:21;17.23;;;6.00;;
4835;SDS011;2432;51.226;6.904;2022-08-19T01:28:51;21.33;;;6.27;;
4835;SDS011;2432;51.226;6.904;2022-08-19T01:31:28;18.10;;;6.70;;
4835;SDS011;2432;51.226;6.904;2022-08-19T01:33:59;12.80;;;6.10;;
4835;SDS011;2432;51.226;6.904;2022-08-19T01:36:29;12.53;;;5.83;;
4835;SDS011;2432;51.226;6.904;2022-08-19T01:38:58;14.03;;;5.90;;
4835;SDS011;2432;51.226;6.904;2022-08-19T01:41:26;12.73;;;5.93;;
4835;SDS011;2432;51.226;6.904;2022-08-19T01:43:53;14.30;;;6.20;;
4835;SDS011;2432;51.226;6.904;2022-08-19T01:46:40;19.50;;;6.50;;
4835;SDS011;2432;51.226;6.904;2022-08-19T01:49:06;13.90;;;6.80;;
4835;SDS011;2432;51.226;6.904;2022-08-19T01:51:34;14.63;;;6.40;;
4835;SDS011;2432;51.226;6.904;2022-08-19T01:54:05;14.00;;;6.17;;
4835;SDS011;2432;51.226;6.904;2022-08-19T01:56:33;18.73;;;6.70;;
4835;SDS011;2432;51.226;6.904;2022-08-19T01:59:00;15.50;;;7.10;;
4835;SDS011;2432;51.226;6.904;2022-08-19T02:01:29;12.50;;;6.23;;
4835;SDS011;2432;51.226;6.904;2022-08-19T02:03:58;14.73;;;5.90;;
4835;SDS011;2432;51.226;6.904;2022-08-19T02:06:27;12.33;;;6.10;;
4835;SDS011;2432;51.226;6.904;2022-08-19T02:08:54;21.27;;;6.67;;
4835;SDS011;2432;51.226;6.904;2022-08-19T02:11:27;17.67;;;6.40;;
4835;SDS011;2432;51.226;6.904;2022-08-19T02:13:58;13.80;;;6.57;;
4835;SDS011;2432;51.226;6.904;2022-08-19T02:16:25;15.33;;;7.10;;
4835;SDS011;2432;51.226;6.904;2022-08-19T02:18:51;14.77;;;5.97;;
4835;SDS011;2432;51.226;6.904;2022-08-19T02:21:19;13.50;;;6.23;;
4835;SDS011;2432;51.226;6.904;2022-08-19T02:23:47;17.50;;;6.40;;
4835;SDS011;2432;51.226;6.904;2022-08-19T02:26:15;14.40;;;5.77;;
4835;SDS011;2432;51.226;6.904;2022-08-19T02:28:42;12.10;;;6.40;;
4835;SDS011;2432;51.226;6.904;2022-08-19T02:31:10;14.60;;;6.80;;
4835;SDS011;2432;51.226;6.904;2022-08-19T02:33:44;14.60;;;6.37;;
4835;SDS011;2432;51.226;6.904;2022-08-19T02:36:12;16.00;;;6.97;;
4835;SDS011;2432;51.226;6.904;2022-08-19T02:38:41;17.03;;;6.70;;
4835;SDS011;2432;51.226;6.904;2022-08-19T02:41:16;20.50;;;7.27;;
4835;SDS011;2432;51.226;6.904;2022-08-19T02:43:45;15.10;;;6.70;;
4835;SDS011;2432;51.226;6.904;2022-08-19T02:46:33;16.17;;;7.47;;
4835;SDS011;2432;51.226;6.904;2022-08-19T02:49:01;16.67;;;6.20;;
4835;SDS011;2432;51.226;6.904;2022-08-19T02:51:32;15.63;;;7.20;;
4835;SDS011;2432;51.226;6.904;2022-08-19T02:54:04;15.63;;;5.60;;
4835;SDS011;2432;51.226;6.904;2022-08-19T02:56:33;14.27;;;6.13;;
4835;SDS011;2432;51.226;6.904;2022-08-19T02:59:00;19.70;;;8.53;;
4835;SDS011;2432;51.226;6.904;2022-08-19T03:01:31;15.03;;;7.43;;
4835;SDS011;2432;51.226;6.904;2022-08-19T03:03:59;14.57;;;7.33;;
4835;SDS011;2432;51.226;6.904;2022-08-19T03:06:27;12.10;;;6.43;;
4835;SDS011;2432;51.226;6.904;2022-08-19T03:08:55;16.37;;;8.27;;
4835;SDS011;2432;51.226;6.904;2022-08-19T03:11:24;17.50;;;7.23;;
4835;SDS011;2432;51.226;6.904;2022-08-19T03:13:52;18.80;;;8.23;;
4835;SDS011;2432;51.226;6.904;2022-08-19T03:16:21;14.67;;;7.30;;
4835;SDS011;2432;51.226;6.904;2022-08-19T03:18:49;17.60;;;7.87;;
4835;SDS011;2432;51.226;6.904;2022-08-19T03:21:17;18.57;;;7.60;;
4835;SDS011;2432;51.226;6.904;2022-08-19T03:23:46;19.47;;;7.73;;
4835;SDS011;2432;51.226;6.904;2022-08-19T03:26:13;19.60;;;7.80;;
4835;SDS011;2432;51.226;6.904;2022-08-19T03:28:43;21.93;;;7.70;;
4835;SDS011;2432;51.226;6.904;2022-08-19T03:31:20;16.67;;;7.97;;
4835;SDS011;2432;51.226;6.904;2022-08-19T03:34:09;16.10;;;7.90;;
4835;SDS011;2432;51.226;6.904;2022-08-19T03:36:38;19.43;;;7.83;;
4835;SDS011;2432;51.226;6.904;2022-08-19T03:39:05;21.53;;;8.60;;
4835;SDS011;2432;51.226;6.904;2022-08-19T03:41:36;24.37;;;8.77;;
4835;SDS011;2432;51.226;6.904;2022-08-19T03:44:12;17.23;;;8.30;;
4835;SDS011;2432;51.226;6.904;2022-08-19T03:47:03;16.73;;;8.13;;
4835;SDS011;2432;51.226;6.904;2022-08-19T03:49:31;15.27;;;7.67;;
4835;SDS011;2432;51.226;6.904;2022-08-19T03:52:02;14.00;;;7.33;;
4835;SDS011;2432;51.226;6.904;2022-08-19T03:54:31;18.43;;;8.93;;
4835;SDS011;2432;51.226;6.904;2022-08-19T03:56:57;18.30;;;8.63;;
4835;SDS011;2432;51.226;6.904;2022-08-19T03:59:25;26.67;;;8.50;;
4835;SDS011;2432;51.226;6.904;2022-08-19T04:01:57;20.70;;;8.87;;
4835;SDS011;2432;51.226;6.904;2022-08-19T04:04:26;22.73;;;9.30;;
4835;SDS011;2432;51.226;6.904;2022-08-19T04:06:54;22.73;;;10.10;;
4835;SDS011;2432;51.226;6.904;2022-08-19T04:09:22;23.60;;;11.20;;
4835;SDS011;2432;51.226;6.904;2022-08-19T04:11:49;20.33;;;10.67;;
4835;SDS011;2432;51.226;6.904;2022-08-19T04:14:20;19.50;;;10.73;;
4835;SDS011;2432;51.226;6.904;2022-08-19T04:16:52;21.77;;;10.40;;
4835;SDS011;2432;51.226;6.904;2022-08-19T04:19:19;20.87;;;8.70;;
4835;SDS011;2432;51.226;6.904;2022-08-19T04:21:47;20.83;;;8.03;;
4835;SDS011;2432;51.226;6.904;2022-08-19T04:24:16;19.30;;;7.97;;
4835;SDS011;2432;51.226;6.904;2022-08-19T04:26:43;18.10;;;8.00;;
4835;SDS011;2432;51.226;6.904;2022-08-19T04:29:12;20.00;;;9.60;;
4835;SDS011;2432;51.226;6.904;2022-08-19T04:31:40;18.13;;;8.60;;
4835;SDS011;2432;51.226;6.904;2022-08-19T04:34:13;15.43;;;7.33;;
4835;SDS011;2432;51.226;6.904;2022-08-19T04:36:42;17.40;;;7.57;;
4835;SDS011;2432;51.226;6.904;2022-08-19T04:39:14;17.87;;;7.87;;
4835;SDS011;2432;51.226;6.904;2022-08-19T04:41:41;17.20;;;8.30;;
4835;SDS011;2432;51.226;6.904;2022-08-19T04:44:27;23.00;;;9.37;;
4835;SDS011;2432;51.226;6.904;2022-08-19T04:46:58;19.73;;;8.37;;
4835;SDS011;2432;51.226;6.904;2022-08-19T04:49:26;17.23;;;9.20;;
4835;SDS011;2432;51.226;6.904;2022-08-19T04:51:54;19.83;;;8.97;;
4835;SDS011;2432;51.226;6.904;2022-08-19T04:54:22;22.00;;;10.27;;
4835;SDS011;2432;51.226;6.904;2022-08-19T04:57:05;22.80;;;9.20;;
4835;SDS011;2432;51.226;6.904;2022-08-19T04:59:35;22.60;;;8.83;;
4835;SDS011;2432;51.226;6.904;2022-08-19T05:02:03;20.73;;;9.80;;
4835;SDS011;2432;51.226;6.904;2022-08-19T05:04:30;16.93;;;8.70;;
4835;SDS011;2432;51.226;6.904;2022-08-19T05:06:59;23.50;;;9.20;;
4835;SDS011;2432;51.226;6.904;2022-08-19T05:09:28;19.97;;;9.20;;
4835;SDS011;2432;51.226;6.904;2022-08-19T05:12:16;19.80;;;10.47;;
4835;SDS011;2432;51.226;6.904;2022-08-19T05:14:43;19.50;;;11.13;;
4835;SDS011;2432;51.226;6.904;2022-08-19T05:17:12;21.13;;;10.50;;
4835;SDS011;2432;51.226;6.904;2022-08-19T05:19:59;29.17;;;11.30;;
4835;SDS011;2432;51.226;6.904;2022-08-19T05:22:45;29.07;;;10.30;;
4835;SDS011;2432;51.226;6.904;2022-08-19T05:25:14;26.67;;;10.03;;
4835;SDS011;2432;51.226;6.904;2022-08-19T05:27:47;26.03;;;10.30;;
4835;SDS011;2432;51.226;6.904;2022-08-19T05:30:15;22.97;;;10.83;;
4835;SDS011;2432;51.226;6.904;2022-08-19T05:32:42;28.73;;;11.90;;
4835;SDS011;2432;51.226;6.904;2022-08-19T05:35:09;23.43;;;12.17;;
4835;SDS011;2432;51.226;6.904;2022-08-19T05:37:37;25.40;;;11.60;;
4835;SDS011;2432;51.226;6.904;2022-08-19T05:40:08;25.43;;;12.13;;
4835;SDS011;2432;51.226;6.904;2022-08-19T05:42:35;21.70;;;10.90;;
4835;SDS011;2432;51.226;6.904;2022-08-19T05:45:02;28.17;;;11.00;;
4835;SDS011;2432;51.226;6.904;2022-08-19T05:47:29;25.97;;;11.73;;
4835;SDS011;2432;51.226;6.904;2022-08-19T05:49:55;27.03;;;11.87;;
4835;SDS011;2432;51.226;6.904;2022-08-19T05:52:22;21.60;;;11.07;;
4835;SDS011;2432;51.226;6.904;2022-08-19T05:54:52;21.00;;;12.13;;
4835;SDS011;2432;51.226;6.904;2022-08-19T05:57:21;23.77;;;12.87;;
4835;SDS011;2432;51.226;6.904;2022-08-19T05:59:48;24.70;;;13.77;;
4835;SDS011;2432;51.226;6.904;2022-08-19T06:02:23;24.83;;;14.20;;
4835;SDS011;2432;51.226;6.904;2022-08-19T06:04:49;31.83;;;13.80;;
4835;SDS011;2432;51.226;6.904;2022-08-19T06:07:16;28.77;;;16.20;;
4835;SDS011;2432;51.226;6.904;2022-08-19T06:09:43;33.33;;;15.47;;
4835;SDS011;2432;51.226;6.904;2022-08-19T06:12:29;29.40;;;16.90;;
4835;SDS011;2432;51.226;6.904;2022-08-19T06:15:08;33.97;;;17.53;;
4835;SDS011;2432;51.226;6.904;2022-08-19T06:17:37;31.10;;;18.50;;
4835;SDS011;2432;51.226;6.904;2022-08-19T06:20:08;28.50;;;19.37;;
4835;SDS011;2432;51.226;6.904;2022-08-19T06:22:38;30.50;;;19.50;;
4835;SDS011;2432;51.226;6.904;2022-08-19T06:25:09;33.80;;;22.60;;
4835;SDS011;2432;51.226;6.904;2022-08-19T06:27:37;34.33;;;23.10;;
4835;SDS011;2432;51.226;6.904;2022-08-19T06:30:23;41.47;;;27.17;;
4835;SDS011;2432;51.226;6.904;2022-08-19T06:32:50;40.33;;;28.60;;
4835;SDS011;2432;51.226;6.904;2022-08-19T06:35:18;40.70;;;28.00;;
4835;SDS011;2432;51.226;6.904;2022-08-19T06:37:44;62.57;;;31.77;;
4835;SDS011;2432;51.226;6.904;2022-08-19T06:40:11;49.27;;;32.23;;
4835;SDS011;2432;51.226;6.904;2022-08-19T06:42:38;45.90;;;31.73;;
4835;SDS011;2432;51.226;6.904;2022-08-19T06:45:19;46.97;;;34.87;;
4835;SDS011;2432;51.226;6.904;2022-08-19T06:47:49;49.37;;;35.90;;
4835;SDS011;2432;51.226;6.904;2022-08-19T06:50:20;51.80;;;38.63;;
4835;SDS011;2432;51.226;6.904;2022-08-19T06:52:50;50.27;;;37.60;;
4835;SDS011;2432;51.226;6.904;2022-08-19T06:55:18;57.33;;;40.93;;
4835;SDS011;2432;51.226;6.904;2022-08-19T06:57:45;54.17;;;39.53;;
4835;SDS011;2432;51.226;6.904;2022-08-19T07:00:12;52.10;;;37.40;;
4835;SDS011;2432;51.226;6.904;2022-08-19T07:02:41;57.27;;;42.20;;
4835;SDS011;2432;51.226;6.904;2022-08-19T07:05:20;807.60;;;147.00;;
4835;SDS011;2432;51.226;6.904;2022-08-19T07:07:47;138.43;;;51.53;;
4835;SDS011;2432;51.226;6.904;2022-08-19T07:10:16;64.93;;;41.63;;
4835;SDS011;2432;51.226;6.904;2022-08-19T07:12:43;65.50;;;42.60;;
4835;SDS011;2432;51.226;6.904;2022-08-19T07:15:10;65.77;;;41.40;;
4835;SDS011;2432;51.226;6.904;2022-08-19T07:17:37;62.60;;;42.30;;
4835;SDS011;2432;51.226;6.904;2022-08-19T07:20:07;67.17;;;43.40;;
4835;SDS011;2432;51.226;6.904;2022-08-19T07:22:35;61.63;;;44.93;;
4835;SDS011;2432;51.226;6.904;2022-08-19T07:25:03;62.33;;;44.40;;
4835;SDS011;2432;51.226;6.904;2022-08-19T07:27:33;64.60;;;47.10;;
4835;SDS011;2432;51.226;6.904;2022-08-19T07:30:00;61.20;;;46.07;;
4835;SDS011;2432;51.226;6.904;2022-08-19T07:32:27;70.00;;;46.10;;
4835;SDS011;2432;51.226;6.904;2022-08-19T07:34:54;67.70;;;47.20;;
4835;SDS011;2432;51.226;6.904;2022-08-19T07:37:22;61.67;;;45.57;;
4835;SDS011;2432;51.226;6.904;2022-08-19T07:39:49;71.87;;;48.80;;
4835;SDS011;2432;51.226;6.904;2022-08-19T07:42:15;69.63;;;48.10;;
4835;SDS011;2432;51.226;6.904;2022-08-19T07:44:44;66.10;;;48.17;;
4835;SDS011;2432;51.226;6.904;2022-08-19T07:47:15;66.33;;;47.03;;
4835;SDS011;2432;51.226;6.904;2022-08-19T07:50:03;69.03;;;45.20;;
4835;SDS011;2432;51.226;6.904;2022-08-19T07:52:34;60.80;;;44.10;;
4835;SDS011;2432;51.226;6.904;2022-08-19T07:55:03;73.50;;;49.90;;
4835;SDS011;2432;51.226;6.904;2022-08-19T07:57:30;70.57;;;50.77;;
4835;SDS011;2432;51.226;6.904;2022-08-19T07:59:57;67.37;;;46.27;;
4835;SDS011;2432;51.226;6.904;2022-08-19T08:02:25;66.97;;;46.27;;
4835;SDS011;2432;51.226;6.904;2022-08-19T08:04:51;66.97;;;47.30;;
4835;SDS011;2432;51.226;6.904;2022-08-19T08:07:36;63.63;;;44.67;;
4835;SDS011;2432;51.226;6.904;2022-08-19T08:10:21;71.10;;;45.17;;
4835;SDS011;2432;51.226;6.904;2022-08-19T08:12:49;64.27;;;44.13;;
4835;SDS011;2432;51.226;6.904;2022-08-19T08:15:36;65.13;;;43.83;;
4835;SDS011;2432;51.226;6.904;2022-08-19T08:18:08;65.50;;;43.57;;
4835;SDS011;2432;51.226;6.904;2022-08-19T08:20:35;66.60;;;43.97;;
4835;SDS011;2432;51.226;6.904;2022-08-19T08:23:01;62.90;;;43.03;;
4835;SDS011;2432;51.226;6.904;2022-08-19T08:25:47;59.03;;;41.43;;
4835;SDS011;2432;51.226;6.904;2022-08-19T08:28:15;57.20;;;39.10;;
4835;SDS011;2432;51.226;6.904;2022-08-19T08:30:43;62.73;;;39.10;;
4835;SDS011;2432;51.226;6.904;2022-08-19T08:33:12;52.93;;;37.10;;
4835;SDS011;2432;51.226;6.904;2022-08-19T08:35:45;58.43;;;39.67;;
4835;SDS011;2432;51.226;6.904;2022-08-19T08:38:11;58.70;;;36.87;;
4835;SDS011;2432;51.226;6.904;2022-08-19T08:40:48;49.03;;;33.57;;
4835;SDS011;2432;51.226;6.904;2022-08-19T08:43:21;49.90;;;34.20;;
4835;SDS011;2432;51.226;6.904;2022-08-19T08:46:05;54.70;;;35.90;;
4835;SDS011;2432;51.226;6.904;2022-08-19T08:51:24;49.93;;;34.07;;
4835;SDS011;2432;51.226;6.904;2022-08-19T08:54:00;52.50;;;33.47;;
4835;SDS011;2432;51.226;6.904;2022-08-19T08:56:30;54.40;;;34.40;;
4835;SDS011;2432;51.226;6.904;2022-08-19T08:59:12;59.47;;;37.07;;
4835;SDS011;2432;51.226;6.904;2022-08-19T09:01:58;52.13;;;33.53;;
4835;SDS011;2432;51.226;6.904;2022-08-19T09:04:25;57.47;;;36.37;;
4835;SDS011;2432;51.226;6.904;2022-08-19T09:06:57;52.00;;;34.63;;
4835;SDS011;2432;51.226;6.904;2022-08-19T09:16:08;56.37;;;35.47;;
4835;SDS011;2432;51.226;6.904;2022-08-19T09:18:49;64.00;;;39.40;;
4835;SDS011;2432;51.226;6.904;2022-08-19T09:21:20;49.77;;;31.80;;
4835;SDS011;2432;51.226;6.904;2022-08-19T09:23:55;44.67;;;30.07;;
4835;SDS011;2432;51.226;6.904;2022-08-19T09:26:25;41.80;;;27.57;;
4835;SDS011;2432;51.226;6.904;2022-08-19T09:29:12;40.77;;;25.03;;
4835;SDS011;2432;51.226;6.904;2022-08-19T09:31:39;41.33;;;25.50;;
4835;SDS011;2432;51.226;6.904;2022-08-19T09:34:06;40.53;;;26.13;;
4835;SDS011;2432;51.226;6.904;2022-08-19T09:36:46;41.70;;;26.13;;
4835;SDS011;2432;51.226;6.904;2022-08-19T09:39:16;43.87;;;27.43;;
4835;SDS011;2432;51.226;6.904;2022-08-19T09:41:42;42.97;;;27.30;;
4835;SDS011;2432;51.226;6.904;2022-08-19T09:44:14;42.03;;;28.40;;
4835;SDS011;2432;51.226;6.904;2022-08-19T09:46:40;49.63;;;30.50;;
4835;SDS011;2432;51.226;6.904;2022-08-19T09:49:07;45.93;;;30.90;;
4835;SDS011;2432;51.226;6.904;2022-08-19T09:51:34;46.70;;;30.03;;
4835;SDS011;2432;51.226;6.904;2022-08-19T09:54:01;43.40;;;28.53;;
4835;SDS011;2432;51.226;6.904;2022-08-19T09:56:30;41.53;;;26.70;;
4835;SDS011;2432;51.226;6.904;2022-08-19T09:58:59;43.17;;;23.97;;
4835;SDS011;2432;51.226;6.904;2022-08-19T10:01:27;38.73;;;20.73;;
4835;SDS011;2432;51.226;6.904;2022-08-19T10:03:55;35.27;;;21.20;;
4835;SDS011;2432;51.226;6.904;2022-08-19T10:06:24;29.20;;;17.17;;
4835;SDS011;2432;51.226;6.904;2022-08-19T10:09:11;29.47;;;17.73;;
4835;SDS011;2432;51.226;6.904;2022-08-19T10:11:42;30.17;;;17.80;;
4835;SDS011;2432;51.226;6.904;2022-08-19T10:14:20;39.17;;;20.27;;
4835;SDS011;2432;51.226;6.904;2022-08-19T10:16:49;29.70;;;16.23;;
4835;SDS011;2432;51.226;6.904;2022-08-19T10:19:18;34.47;;;20.00;;
4835;SDS011;2432;51.226;6.904;2022-08-19T10:21:51;32.87;;;18.63;;
4835;SDS011;2432;51.226;6.904;2022-08-19T10:24:18;28.40;;;18.90;;
4835;SDS011;2432;51.226;6.904;2022-08-19T10:26:46;36.67;;;21.93;;
4835;SDS011;2432;51.226;6.904;2022-08-19T10:29:24;34.47;;;20.63;;
4835;SDS011;2432;51.226;6.904;2022-08-19T10:31:58;30.60;;;20.53;;
4835;SDS011;2432;51.226;6.904;2022-08-19T10:34:28;39.03;;;24.60;;
4835;SDS011;2432;51.226;6.904;2022-08-19T10:36:57;38.63;;;25.33;;
4835;SDS011;2432;51.226;6.904;2022-08-19T10:39:27;37.73;;;24.47;;
4835;SDS011;2432;51.226;6.904;2022-08-19T10:41:56;36.13;;;25.17;;
4835;SDS011;2432;51.226;6.904;2022-08-19T10:44:23;41.43;;;26.43;;
4835;SDS011;2432;51.226;6.904;2022-08-19T10:46:57;31.50;;;21.30;;
4835;SDS011;2432;51.226;6.904;2022-08-19T10:49:25;32.80;;;21.57;;
4835;SDS011;2432;51.226;6.904;2022-08-19T10:51:53;34.80;;;20.67;;
4835;SDS011;2432;51.226;6.904;2022-08-19T10:54:44;34.43;;;21.60;;
4835;SDS011;2432;51.226;6.904;2022-08-19T10:57:33;37.17;;;22.43;;
4835;SDS011;2432;51.226;6.904;2022-08-19T11:00:20;34.30;;;21.97;;
4835;SDS011;2432;51.226;6.904;2022-08-19T11:02:48;34.67;;;21.03;;
4835;SDS011;2432;51.226;6.904;2022-08-19T11:05:15;32.00;;;21.10;;
4835;SDS011;2432;51.226;6.904;2022-08-19T11:07:44;28.70;;;18.40;;
4835;SDS011;2432;51.226;6.904;2022-08-19T11:10:12;34.37;;;19.33;;
4835;SDS011;2432;51.226;6.904;2022-08-19T11:12:46;28.30;;;18.00;;
4835;SDS011;2432;51.226;6.904;2022-08-19T11:15:13;25.83;;;16.90;;
4835;SDS011;2432;51.226;6.904;2022-08-19T11:17:39;33.17;;;17.57;;
4835;SDS011;2432;51.226;6.904;2022-08-19T11:20:10;29.83;;;17.70;;
4835;SDS011;2432;51.226;6.904;2022-08-19T11:22:38;26.53;;;15.60;;
4835;SDS011;2432;51.226;6.904;2022-08-19T11:25:07;28.03;;;15.63;;
4835;SDS011;2432;51.226;6.904;2022-08-19T11:27:39;23.00;;;14.80;;
4835;SDS011;2432;51.226;6.904;2022-08-19T11:30:11;25.63;;;14.60;;
4835;SDS011;2432;51.226;6.904;2022-08-19T11:32:40;24.43;;;14.20;;
4835;SDS011;2432;51.226;6.904;2022-08-19T11:35:14;31.73;;;13.47;;
4835;SDS011;2432;51.226;6.904;2022-08-19T11:37:42;18.93;;;12.07;;
4835;SDS011;2432;51.226;6.904;2022-08-19T11:40:08;19.50;;;11.87;;
4835;SDS011;2432;51.226;6.904;2022-08-19T11:42:36;20.47;;;11.10;;
4835;SDS011;2432;51.226;6.904;2022-08-19T11:45:26;21.23;;;13.47;;
4835;SDS011;2432;51.226;6.904;2022-08-19T11:47:54;24.90;;;12.60;;
4835;SDS011;2432;51.226;6.904;2022-08-19T11:50:21;23.80;;;11.63;;
4835;SDS011;2432;51.226;6.904;2022-08-19T11:52:49;26.07;;;14.07;;
4835;SDS011;2432;51.226;6.904;2022-08-19T11:55:16;19.03;;;10.57;;
4835;SDS011;2432;51.226;6.904;2022-08-19T11:57:43;19.97;;;10.30;;
4835;SDS011;2432;51.226;6.904;2022-08-19T12:00:10;19.10;;;11.87;;
4835;SDS011;2432;51.226;6.904;2022-08-19T12:02:39;20.70;;;11.80;;
4835;SDS011;2432;51.226;6.904;2022-08-19T12:05:06;24.50;;;13.13;;
4835;SDS011;2432;51.226;6.904;2022-08-19T12:07:37;18.40;;;11.07;;
4835;SDS011;2432;51.226;6.904;2022-08-19T12:10:05;19.67;;;10.13;;
4835;SDS011;2432;51.226;6.904;2022-08-19T12:12:33;19.50;;;11.73;;
4835;SDS011;2432;51.226;6.904;2022-08-19T12:14:59;18.53;;;10.27;;
4835;SDS011;2432;51.226;6.904;2022-08-19T12:17:26;21.53;;;10.60;;
4835;SDS011;2432;51.226;6.904;2022-08-19T12:19:53;21.40;;;10.20;;
4835;SDS011;2432;51.226;6.904;2022-08-19T12:22:20;21.60;;;11.30;;
4835;SDS011;2432;51.226;6.904;2022-08-19T12:24:47;25.77;;;12.07;;
4835;SDS011;2432;51.226;6.904;2022-08-19T12:27:16;20.40;;;11.20;;
4835;SDS011;2432;51.226;6.904;2022-08-19T12:30:03;19.60;;;10.60;;
4835;SDS011;2432;51.226;6.904;2022-08-19T12:32:32;21.00;;;9.13;;
4835;SDS011;2432;51.226;6.904;2022-08-19T12:34:58;17.57;;;10.50;;
4835;SDS011;2432;51.226;6.904;2022-08-19T12:37:25;19.37;;;9.90;;
4835;SDS011;2432;51.226;6.904;2022-08-19T12:39:51;20.20;;;9.47;;
4835;SDS011;2432;51.226;6.904;2022-08-19T12:42:18;17.40;;;8.90;;
4835;SDS011;2432;51.226;6.904;2022-08-19T12:44:45;16.63;;;8.07;;
4835;SDS011;2432;51.226;6.904;2022-08-19T12:47:12;18.17;;;9.50;;
4835;SDS011;2432;51.226;6.904;2022-08-19T12:49:40;17.37;;;8.20;;
4835;SDS011;2432;51.226;6.904;2022-08-19T12:52:21;17.00;;;7.80;;
4835;SDS011;2432;51.226;6.904;2022-08-19T12:54:49;17.43;;;7.63;;
4835;SDS011;2432;51.226;6.904;2022-08-19T12:57:20;15.23;;;7.90;;
4835;SDS011;2432;51.226;6.904;2022-08-19T13:00:03;15.60;;;7.63;;
4835;SDS011;2432;51.226;6.904;2022-08-19T13:02:40;19.13;;;7.20;;
4835;SDS011;2432;51.226;6.904;2022-08-19T13:05:11;14.30;;;7.47;;
4835;SDS011;2432;51.226;6.904;2022-08-19T13:07:41;20.33;;;9.20;;
4835;SDS011;2432;51.226;6.904;2022-08-19T13:10:10;19.43;;;8.97;;
4835;SDS011;2432;51.226;6.904;2022-08-19T13:12:39;19.87;;;9.70;;
4835;SDS011;2432;51.226;6.904;2022-08-19T13:15:07;20.10;;;9.27;;
4835;SDS011;2432;51.226;6.904;2022-08-19T13:17:37;18.73;;;8.00;;
4835;SDS011;2432;51.226;6.904;2022-08-19T13:20:04;19.20;;;8.00;;
4835;SDS011;2432;51.226;6.904;2022-08-19T13:22:34;15.23;;;8.00;;
4835;SDS011;2432;51.226;6.904;2022-08-19T13:25:04;19.90;;;7.47;;
4835;SDS011;2432;51.226;6.904;2022-08-19T13:27:32;17.57;;;7.97;;
4835;SDS011;2432;51.226;6.904;2022-08-19T13:29:59;18.47;;;7.00;;
4835;SDS011;2432;51.226;6.904;2022-08-19T13:32:44;15.57;;;5.70;;
4835;SDS011;2432;51.226;6.904;2022-08-19T13:35:29;13.97;;;5.80;;
4835;SDS011;2432;51.226;6.904;2022-08-19T13:37:55;20.17;;;6.17;;
4835;SDS011;2432;51.226;6.904;2022-08-19T13:40:23;14.83;;;5.93;;
4835;SDS011;2432;51.226;6.904;2022-08-19T13:42:53;15.43;;;6.50;;
4835;SDS011;2432;51.226;6.904;2022-08-19T13:45:22;19.93;;;6.27;;
4835;SDS011;2432;51.226;6.904;2022-08-19T13:47:51;16.73;;;6.47;;
4835;SDS011;2432;51.226;6.904;2022-08-19T13:50:26;13.60;;;6.20;;
4835;SDS011;2432;51.226;6.904;2022-08-19T13:52:55;15.07;;;6.20;;
4835;SDS011;2432;51.226;6.904;2022-08-19T13:55:22;11.23;;;5.60;;
4835;SDS011;2432;51.226;6.904;2022-08-19T13:57:51;13.73;;;5.87;;
4835;SDS011;2432;51.226;6.904;2022-08-19T14:00:20;12.37;;;5.47;;
4835;SDS011;2432;51.226;6.904;2022-08-19T14:02:49;12.50;;;5.20;;
4835;SDS011;2432;51.226;6.904;2022-08-19T14:05:17;12.00;;;5.17;;
4835;SDS011;2432;51.226;6.904;2022-08-19T14:07:45;12.30;;;5.20;;
4835;SDS011;2432;51.226;6.904;2022-08-19T14:10:12;12.93;;;6.13;;
4835;SDS011;2432;51.226;6.904;2022-08-19T14:12:40;12.13;;;5.10;;
4835;SDS011;2432;51.226;6.904;2022-08-19T14:15:07;12.93;;;5.40;;
4835;SDS011;2432;51.226;6.904;2022-08-19T14:17:39;12.80;;;5.13;;
4835;SDS011;2432;51.226;6.904;2022-08-19T14:20:08;14.67;;;4.53;;
4835;SDS011;2432;51.226;6.904;2022-08-19T14:22:44;11.80;;;4.60;;
4835;SDS011;2432;51.226;6.904;2022-08-19T14:25:14;13.40;;;4.77;;
4835;SDS011;2432;51.226;6.904;2022-08-19T14:27:43;11.80;;;4.70;;
4835;SDS011;2432;51.226;6.904;2022-08-19T14:30:11;14.13;;;5.07;;
4835;SDS011;2432;51.226;6.904;2022-08-19T14:32:41;12.37;;;5.23;;
4835;SDS011;2432;51.226;6.904;2022-08-19T14:35:09;11.90;;;4.50;;
4835;SDS011;2432;51.226;6.904;2022-08-19T14:37:38;10.40;;;4.27;;
4835;SDS011;2432;51.226;6.904;2022-08-19T14:40:12;11.87;;;5.07;;
4835;SDS011;2432;51.226;6.904;2022-08-19T14:42:40;11.90;;;4.63;;
4835;SDS011;2432;51.226;6.904;2022-08-19T14:45:07;12.67;;;3.90;;
4835;SDS011;2432;51.226;6.904;2022-08-19T14:47:35;10.83;;;4.03;;
4835;SDS011;2432;51.226;6.904;2022-08-19T14:50:06;11.50;;;4.77;;
4835;SDS011;2432;51.226;6.904;2022-08-19T14:52:36;14.40;;;5.13;;
4835;SDS011;2432;51.226;6.904;2022-08-19T14:55:04;17.33;;;6.70;;
4835;SDS011;2432;51.226;6.904;2022-08-19T14:57:33;10.90;;;4.20;;
4835;SDS011;2432;51.226;6.904;2022-08-19T14:59:59;11.33;;;4.23;;
4835;SDS011;2432;51.226;6.904;2022-08-19T15:02:26;13.70;;;4.53;;
4835;SDS011;2432;51.226;6.904;2022-08-19T15:05:00;11.70;;;4.13;;
4835;SDS011;2432;51.226;6.904;2022-08-19T15:07:28;9.70;;;3.60;;
4835;SDS011;2432;51.226;6.904;2022-08-19T15:09:55;11.90;;;3.70;;
4835;SDS011;2432;51.226;6.904;2022-08-19T15:12:22;15.13;;;3.93;;
4835;SDS011;2432;51.226;6.904;2022-08-19T15:14:50;12.83;;;3.93;;
4835;SDS011;2432;51.226;6.904;2022-08-19T15:17:21;18.40;;;4.20;;
4835;SDS011;2432;51.226;6.904;2022-08-19T15:20:08;10.70;;;3.90;;
4835;SDS011;2432;51.226;6.904;2022-08-19T15:22:35;12.60;;;5.00;;
4835;SDS011;2432;51.226;6.904;2022-08-19T15:25:03;11.50;;;3.53;;